createdAt,value
2023-01-31T00:00:05.630Z,6.30
2023-01-31T00:01:05.520Z,5.30
2023-01-31T00:02:05.488Z,8.30
2023-01-31T00:03:05.489Z,6.20
2023-01-31T00:04:05.423Z,6.10
2023-01-31T00:06:14.531Z,6.00
2023-01-31T00:07:15.456Z,6.30
2023-01-31T00:08:15.409Z,7.10
2023-01-31T00:09:15.330Z,6.90
2023-01-31T00:10:15.241Z,5.90
2023-01-31T00:11:15.193Z,6.10
2023-01-31T00:12:15.135Z,6.20
2023-01-31T00:13:15.097Z,5.80
2023-01-31T00:14:14.994Z,5.70
2023-01-31T00:15:14.975Z,5.90
2023-01-31T00:16:14.871Z,5.50
2023-01-31T00:19:33.298Z,4.10
2023-01-31T00:20:34.762Z,4.90
2023-01-31T00:21:34.881Z,5.30
2023-01-31T00:22:34.097Z,5.30
2023-01-31T00:23:34.030Z,5.00
2023-01-31T00:24:33.999Z,5.00
2023-01-31T00:25:33.926Z,5.80
2023-01-31T00:26:33.840Z,5.00
2023-01-31T00:27:33.753Z,5.20
2023-01-31T00:28:33.704Z,5.40
2023-01-31T00:29:33.600Z,6.70
2023-01-31T00:30:33.595Z,6.30
2023-01-31T00:31:33.679Z,6.30
2023-01-31T00:32:33.465Z,5.90
2023-01-31T00:33:33.405Z,6.00
2023-01-31T00:34:33.398Z,7.40
2023-01-31T00:35:33.252Z,5.70
2023-01-31T00:36:33.204Z,5.30
2023-01-31T00:37:33.131Z,6.60
2023-01-31T00:38:33.097Z,6.30
2023-01-31T00:39:32.999Z,5.90
2023-01-31T00:40:32.936Z,6.00
2023-01-31T00:41:32.889Z,6.30
2023-01-31T00:42:32.795Z,6.10
2023-01-31T00:43:32.741Z,7.20
2023-01-31T00:44:32.706Z,6.60
2023-01-31T00:45:32.591Z,7.10
2023-01-31T00:46:32.613Z,6.20
2023-01-31T00:47:32.485Z,6.20
2023-01-31T00:48:32.477Z,6.50
2023-01-31T00:49:32.373Z,6.70
2023-01-31T00:50:32.324Z,5.70
2023-01-31T00:51:32.269Z,6.80
2023-01-31T00:52:32.214Z,6.80
2023-01-31T00:53:32.132Z,6.60
2023-01-31T00:54:32.037Z,6.10
2023-01-31T00:55:31.998Z,6.60
2023-01-31T00:56:31.921Z,6.10
2023-01-31T00:57:31.884Z,7.20
2023-01-31T00:58:31.832Z,6.50
2023-01-31T00:59:31.738Z,6.50
2023-01-31T01:00:31.767Z,6.90
2023-01-31T01:01:31.577Z,7.40
2023-01-31T01:02:31.572Z,6.70
2023-01-31T01:03:31.480Z,6.30
2023-01-31T01:04:31.447Z,6.20
2023-01-31T01:05:31.383Z,6.80
2023-01-31T01:06:31.277Z,6.40
2023-01-31T01:07:31.253Z,6.60
2023-01-31T01:08:31.158Z,6.80
2023-01-31T01:09:31.124Z,6.50
2023-01-31T01:10:31.049Z,5.60
2023-01-31T01:11:30.953Z,5.80
2023-01-31T01:12:30.958Z,6.50
2023-01-31T01:13:30.847Z,6.30
2023-01-31T01:14:30.789Z,7.70
2023-01-31T01:15:30.743Z,6.50
2023-01-31T01:16:30.689Z,6.10
2023-01-31T01:17:30.573Z,6.10
2023-01-31T01:18:51.503Z,6.20
2023-01-31T01:19:30.487Z,7.00
2023-01-31T01:20:30.380Z,6.40
2023-01-31T01:21:31.151Z,6.30
2023-01-31T01:22:30.771Z,6.30
2023-01-31T01:23:30.687Z,6.00
2023-01-31T01:24:30.661Z,7.20
2023-01-31T01:25:30.449Z,6.70
2023-01-31T01:26:30.813Z,6.40
2023-01-31T01:27:30.327Z,5.70
2023-01-31T01:28:30.236Z,7.10
2023-01-31T01:29:30.030Z,8.50
2023-01-31T01:30:30.080Z,6.70
2023-01-31T01:31:30.350Z,6.00
2023-01-31T01:32:29.927Z,7.10
2023-01-31T01:33:29.702Z,6.60
2023-01-31T01:34:29.544Z,7.10
2023-01-31T01:35:29.430Z,6.10
2023-01-31T01:36:29.416Z,6.60
2023-01-31T01:37:29.300Z,6.90
2023-01-31T01:38:29.336Z,6.20
2023-01-31T01:39:29.203Z,6.30
2023-01-31T01:40:29.139Z,6.20
2023-01-31T01:41:29.078Z,6.40
2023-01-31T01:42:29.010Z,6.40
2023-01-31T01:43:29.509Z,6.30
2023-01-31T01:44:29.383Z,5.80
2023-01-31T01:45:29.365Z,6.20
2023-01-31T01:46:29.260Z,7.10
2023-01-31T01:47:29.258Z,7.00
2023-01-31T01:48:29.119Z,6.20
2023-01-31T01:49:28.889Z,6.90
2023-01-31T01:50:28.808Z,6.20
2023-01-31T01:51:28.680Z,6.70
2023-01-31T01:52:28.521Z,6.00
2023-01-31T01:53:28.601Z,7.20
2023-01-31T01:54:49.208Z,6.70
2023-01-31T01:55:28.269Z,6.80
2023-01-31T01:56:28.183Z,5.50
2023-01-31T01:57:28.178Z,6.10
2023-01-31T01:58:28.002Z,6.10
2023-01-31T01:59:27.937Z,6.20
2023-01-31T02:00:27.864Z,6.30
2023-01-31T02:01:27.787Z,6.20
2023-01-31T02:02:27.852Z,6.20
2023-01-31T02:03:27.689Z,7.30
2023-01-31T02:04:28.161Z,5.50
2023-01-31T02:05:27.582Z,7.10
2023-01-31T02:06:27.909Z,6.60
2023-01-31T02:07:27.978Z,5.80
2023-01-31T02:08:28.118Z,5.90
2023-01-31T02:09:27.684Z,6.70
2023-01-31T02:10:27.622Z,6.10
2023-01-31T02:11:27.429Z,7.20
2023-01-31T02:14:06.118Z,5.30
2023-01-31T02:15:07.059Z,6.20
2023-01-31T02:16:07.108Z,6.40
2023-01-31T02:17:06.904Z,5.10
2023-01-31T02:18:06.842Z,5.30
2023-01-31T02:19:06.826Z,5.80
2023-01-31T02:20:06.759Z,6.60
2023-01-31T02:21:06.659Z,6.40
2023-01-31T02:22:06.581Z,5.60
2023-01-31T02:23:06.539Z,6.00
2023-01-31T02:24:06.522Z,6.30
2023-01-31T02:25:06.696Z,5.70
2023-01-31T02:26:06.381Z,6.10
2023-01-31T02:27:06.265Z,5.50
2023-01-31T02:28:06.227Z,5.40
2023-01-31T02:29:06.201Z,5.40
2023-01-31T02:30:06.110Z,5.50
2023-01-31T02:32:15.286Z,6.10
2023-01-31T02:33:16.165Z,6.30
2023-01-31T02:34:16.159Z,6.50
2023-01-31T02:35:16.099Z,5.60
2023-01-31T02:36:16.007Z,5.30
2023-01-31T02:37:15.994Z,6.20
2023-01-31T02:38:15.922Z,5.50
2023-01-31T02:39:15.813Z,5.30
2023-01-31T02:40:15.798Z,5.20
2023-01-31T02:41:15.690Z,6.30
2023-01-31T02:42:15.628Z,5.30
2023-01-31T02:43:15.601Z,5.60
2023-01-31T02:44:15.491Z,5.90
2023-01-31T02:45:15.468Z,6.90
2023-01-31T02:46:15.465Z,6.20
2023-01-31T02:47:15.309Z,5.60
2023-01-31T02:48:15.273Z,5.60
2023-01-31T02:49:15.197Z,6.50
2023-01-31T02:50:15.118Z,5.90
2023-01-31T02:51:15.093Z,5.30
2023-01-31T02:52:15.012Z,5.40
2023-01-31T02:53:14.900Z,5.90
2023-01-31T02:54:14.870Z,6.90
2023-01-31T02:55:14.785Z,5.60
2023-01-31T02:56:14.772Z,5.60
2023-01-31T02:57:14.700Z,5.40
2023-01-31T02:58:14.642Z,5.80
2023-01-31T02:59:14.606Z,6.40
2023-01-31T03:00:14.474Z,6.20
2023-01-31T03:01:15.344Z,6.40
2023-01-31T03:02:14.417Z,7.10
2023-01-31T03:03:14.290Z,5.30
2023-01-31T03:04:14.337Z,8.30
2023-01-31T03:05:14.167Z,6.70
2023-01-31T03:06:14.072Z,6.10
2023-01-31T03:07:14.059Z,5.80
2023-01-31T03:08:13.953Z,5.80
2023-01-31T03:09:13.936Z,7.10
2023-01-31T03:10:13.877Z,5.10
2023-01-31T03:11:13.783Z,5.50
2023-01-31T03:12:13.723Z,5.70
2023-01-31T03:13:13.702Z,7.40
2023-01-31T03:14:13.622Z,4.80
2023-01-31T03:15:13.511Z,5.40
2023-01-31T03:16:13.507Z,5.00
2023-01-31T03:17:13.405Z,5.70
2023-01-31T03:18:13.352Z,5.80
2023-01-31T03:19:13.838Z,5.40
2023-01-31T03:20:13.313Z,6.20
2023-01-31T03:21:13.120Z,6.00
2023-01-31T03:22:13.109Z,6.30
2023-01-31T03:23:13.035Z,6.60
2023-01-31T03:24:12.956Z,6.50
2023-01-31T03:25:33.905Z,5.50
2023-01-31T03:26:12.921Z,5.50
2023-01-31T03:27:12.744Z,5.20
2023-01-31T03:28:12.675Z,6.10
2023-01-31T03:29:12.642Z,6.00
2023-01-31T03:30:12.565Z,5.80
2023-01-31T03:31:12.650Z,5.40
2023-01-31T03:32:12.452Z,7.00
2023-01-31T03:33:12.367Z,6.10
2023-01-31T03:34:12.297Z,5.20
2023-01-31T03:35:12.233Z,5.90
2023-01-31T03:36:12.205Z,6.10
2023-01-31T03:37:12.147Z,5.80
2023-01-31T03:38:12.045Z,6.60
2023-01-31T03:39:12.022Z,5.80
2023-01-31T03:40:11.965Z,6.50
2023-01-31T03:41:11.876Z,6.20
2023-01-31T03:42:11.790Z,6.00
2023-01-31T03:43:32.734Z,5.90
2023-01-31T03:44:11.660Z,6.20
2023-01-31T03:45:12.181Z,5.70
2023-01-31T03:46:11.715Z,5.70
2023-01-31T03:47:11.524Z,5.60
2023-01-31T03:48:11.438Z,6.20
2023-01-31T03:49:11.425Z,5.40
2023-01-31T03:50:11.299Z,8.00
2023-01-31T03:51:11.246Z,6.40
2023-01-31T03:52:11.187Z,6.20
2023-01-31T03:53:11.092Z,5.90
2023-01-31T03:54:11.058Z,7.00
2023-01-31T03:55:11.017Z,5.60
2023-01-31T03:56:10.927Z,6.10
2023-01-31T03:57:10.862Z,7.50
2023-01-31T03:58:10.798Z,5.80
2023-01-31T03:59:10.735Z,6.90
2023-01-31T04:00:10.651Z,5.30
2023-01-31T04:01:10.625Z,6.90
2023-01-31T04:02:10.539Z,6.20
2023-01-31T04:03:10.482Z,6.10
2023-01-31T04:04:10.393Z,5.80
2023-01-31T04:05:10.333Z,5.60
2023-01-31T04:06:10.296Z,6.10
2023-01-31T04:07:10.252Z,4.90
2023-01-31T04:08:10.164Z,5.60
2023-01-31T04:09:10.099Z,6.80
2023-01-31T04:10:10.033Z,6.30
2023-01-31T04:11:09.951Z,6.50
2023-01-31T04:12:09.907Z,6.70
2023-01-31T04:13:09.881Z,5.60
2023-01-31T04:14:09.754Z,5.20
2023-01-31T04:15:09.718Z,5.90
2023-01-31T04:16:09.716Z,5.70
2023-01-31T04:17:09.578Z,5.80
2023-01-31T04:18:09.529Z,6.50
2023-01-31T04:19:30.447Z,6.30
2023-01-31T04:20:09.383Z,6.40
2023-01-31T04:21:09.369Z,5.70
2023-01-31T04:22:09.285Z,5.10
2023-01-31T04:23:09.237Z,5.60
2023-01-31T04:24:09.137Z,5.30
2023-01-31T04:25:09.099Z,6.50
2023-01-31T04:26:09.048Z,5.90
2023-01-31T04:27:08.998Z,6.50
2023-01-31T04:28:08.928Z,6.10
2023-01-31T04:29:08.869Z,6.30
2023-01-31T04:30:08.787Z,5.90
2023-01-31T04:31:09.651Z,5.80
2023-01-31T04:32:08.679Z,5.80
2023-01-31T04:33:08.610Z,5.50
2023-01-31T04:34:09.288Z,5.80
2023-01-31T04:35:09.034Z,5.40
2023-01-31T04:36:08.985Z,5.20
2023-01-31T04:37:08.828Z,5.30
2023-01-31T04:38:08.767Z,5.70
2023-01-31T04:39:08.626Z,6.10
2023-01-31T04:40:08.671Z,7.10
2023-01-31T04:41:29.051Z,6.40
2023-01-31T04:42:08.385Z,5.20
2023-01-31T04:43:08.248Z,6.10
2023-01-31T04:44:08.105Z,5.30
2023-01-31T04:45:08.041Z,6.90
2023-01-31T04:46:07.894Z,5.20
2023-01-31T04:47:07.870Z,5.40
2023-01-31T04:48:07.836Z,5.80
2023-01-31T04:49:07.719Z,5.80
2023-01-31T04:50:07.666Z,5.80
2023-01-31T04:51:07.464Z,5.70
2023-01-31T04:52:07.458Z,6.50
2023-01-31T04:53:07.317Z,5.70
2023-01-31T04:54:07.247Z,6.10
2023-01-31T04:55:28.169Z,7.40
2023-01-31T04:56:07.147Z,5.60
2023-01-31T04:57:07.035Z,5.30
2023-01-31T04:58:07.579Z,5.60
2023-01-31T04:59:06.968Z,5.60
2023-01-31T05:00:07.094Z,6.60
2023-01-31T05:01:07.376Z,5.20
2023-01-31T05:02:07.278Z,5.90
2023-01-31T05:03:07.320Z,6.50
2023-01-31T05:04:07.031Z,6.00
2023-01-31T05:05:06.952Z,5.80
2023-01-31T05:06:06.930Z,4.80
2023-01-31T05:07:06.798Z,5.30
2023-01-31T05:08:06.677Z,5.40
2023-01-31T05:09:06.636Z,5.30
2023-01-31T05:10:06.407Z,5.50
2023-01-31T05:11:06.150Z,5.20
2023-01-31T05:12:06.443Z,5.60
2023-01-31T05:13:10.331Z,5.80
2023-01-31T05:14:05.973Z,5.50
2023-01-31T05:15:05.893Z,5.50
2023-01-31T05:16:05.893Z,6.10
2023-01-31T05:17:05.813Z,5.10
2023-01-31T05:18:05.754Z,5.60
2023-01-31T05:19:05.711Z,5.10
2023-01-31T05:20:05.576Z,5.20
2023-01-31T05:21:05.515Z,5.20
2023-01-31T05:22:05.502Z,5.60
2023-01-31T05:23:05.449Z,6.20
2023-01-31T05:24:05.344Z,6.00
2023-01-31T05:25:05.369Z,5.40
2023-01-31T05:26:05.194Z,5.90
2023-01-31T05:27:05.162Z,4.90
2023-01-31T05:28:05.132Z,5.70
2023-01-31T05:29:05.053Z,5.00
2023-01-31T05:30:04.940Z,4.90
2023-01-31T05:31:04.999Z,5.90
2023-01-31T05:32:05.525Z,5.10
2023-01-31T05:33:04.780Z,5.50
2023-01-31T05:34:04.737Z,5.00
2023-01-31T05:35:04.682Z,5.40
2023-01-31T05:36:04.592Z,4.80
2023-01-31T05:37:05.011Z,5.30
2023-01-31T05:38:04.455Z,5.50
2023-01-31T05:39:04.387Z,5.90
2023-01-31T05:40:04.310Z,4.60
2023-01-31T05:41:04.268Z,5.00
2023-01-31T05:42:04.228Z,5.30
2023-01-31T05:43:04.202Z,5.10
2023-01-31T05:44:04.141Z,5.10
2023-01-31T05:45:04.014Z,4.90
2023-01-31T05:46:04.219Z,5.80
2023-01-31T05:47:04.023Z,5.10
2023-01-31T05:48:03.824Z,6.20
2023-01-31T05:49:03.845Z,4.90
2023-01-31T05:50:03.671Z,5.20
2023-01-31T05:51:03.693Z,5.90
2023-01-31T05:52:03.604Z,4.10
2023-01-31T05:53:03.540Z,5.40
2023-01-31T05:54:03.480Z,4.70
2023-01-31T05:55:03.370Z,5.30
2023-01-31T05:56:03.248Z,5.30
2023-01-31T05:57:03.225Z,5.00
2023-01-31T05:58:03.233Z,6.10
2023-01-31T05:59:03.109Z,5.90
2023-01-31T06:00:03.095Z,5.80
2023-01-31T06:01:03.036Z,5.10
2023-01-31T06:02:03.000Z,5.40
2023-01-31T06:03:03.203Z,5.70
2023-01-31T06:04:03.675Z,5.20
2023-01-31T06:05:02.809Z,5.40
2023-01-31T06:06:02.681Z,5.30
2023-01-31T06:07:23.646Z,5.20
2023-01-31T06:08:02.611Z,5.50
2023-01-31T06:09:02.495Z,5.70
2023-01-31T06:10:02.508Z,4.80
2023-01-31T06:11:02.349Z,5.20
2023-01-31T06:12:02.275Z,5.90
2023-01-31T06:13:02.254Z,5.40
2023-01-31T06:14:02.156Z,5.30
2023-01-31T06:15:02.098Z,5.30
2023-01-31T06:16:02.514Z,5.30
2023-01-31T06:17:02.029Z,5.50
2023-01-31T06:18:01.918Z,5.50
2023-01-31T06:19:01.982Z,5.80
2023-01-31T06:20:01.803Z,5.60
2023-01-31T06:21:01.737Z,6.20
2023-01-31T06:22:01.664Z,6.30
2023-01-31T06:23:01.631Z,5.40
2023-01-31T06:24:01.572Z,5.40
2023-01-31T06:25:22.762Z,5.40
2023-01-31T06:26:01.448Z,5.40
2023-01-31T06:27:01.321Z,6.00
2023-01-31T06:28:01.283Z,5.90
2023-01-31T06:29:01.198Z,4.90
2023-01-31T06:30:01.134Z,5.90
2023-01-31T06:31:01.260Z,5.80
2023-01-31T06:32:01.137Z,6.10
2023-01-31T06:33:00.947Z,6.20
2023-01-31T06:34:00.885Z,5.60
2023-01-31T06:35:01.091Z,6.50
2023-01-31T06:36:00.757Z,6.90
2023-01-31T06:37:01.589Z,6.00
2023-01-31T06:38:00.626Z,6.40
2023-01-31T06:39:00.619Z,6.40
2023-01-31T06:40:00.587Z,5.90
2023-01-31T06:41:00.587Z,6.30
2023-01-31T06:42:00.370Z,6.40
2023-01-31T06:43:00.464Z,6.40
2023-01-31T06:44:01.304Z,7.40
2023-01-31T06:45:04.500Z,6.40
2023-01-31T06:46:02.479Z,6.20
2023-01-31T06:47:01.710Z,8.20
2023-01-31T06:48:01.790Z,7.00
2023-01-31T06:48:59.944Z,6.60
2023-01-31T06:49:59.839Z,6.20
2023-01-31T06:50:59.834Z,8.00
2023-01-31T06:51:59.737Z,7.40
2023-01-31T06:52:59.653Z,6.80
2023-01-31T06:53:59.586Z,6.70
2023-01-31T06:54:59.557Z,8.00
2023-01-31T06:55:59.424Z,6.30
2023-01-31T06:56:59.419Z,7.20
2023-01-31T06:57:59.317Z,7.00
2023-01-31T06:58:59.304Z,6.40
2023-01-31T06:59:59.200Z,7.20
2023-01-31T07:00:59.121Z,7.80
2023-01-31T07:01:59.145Z,7.30
2023-01-31T07:02:59.032Z,7.50
2023-01-31T07:03:58.955Z,7.80
2023-01-31T07:04:58.946Z,6.80
2023-01-31T07:05:58.814Z,7.50
2023-01-31T07:06:58.760Z,7.20
2023-01-31T07:07:58.695Z,7.80
2023-01-31T07:08:58.630Z,7.10
2023-01-31T07:09:58.543Z,7.40
2023-01-31T07:10:58.467Z,6.90
2023-01-31T07:11:58.464Z,7.20
2023-01-31T07:12:58.408Z,7.40
2023-01-31T07:13:58.309Z,6.90
2023-01-31T07:14:58.238Z,7.40
2023-01-31T07:15:58.273Z,7.10
2023-01-31T07:16:58.095Z,5.80
2023-01-31T07:17:58.063Z,7.80
2023-01-31T07:19:18.971Z,6.70
2023-01-31T07:19:57.996Z,7.00
2023-01-31T07:20:57.876Z,6.30
2023-01-31T07:21:57.898Z,7.50
2023-01-31T07:22:57.739Z,8.10
2023-01-31T07:23:57.684Z,6.70
2023-01-31T07:24:57.617Z,6.30
2023-01-31T07:25:57.547Z,7.60
2023-01-31T07:26:57.536Z,6.20
2023-01-31T07:27:57.429Z,7.40
2023-01-31T07:28:57.355Z,6.70
2023-01-31T07:29:58.140Z,7.70
2023-01-31T07:30:57.364Z,7.10
2023-01-31T07:31:57.245Z,6.80
2023-01-31T07:32:57.075Z,8.30
2023-01-31T07:33:57.066Z,7.70
2023-01-31T07:34:57.036Z,6.50
2023-01-31T07:35:56.925Z,6.70
2023-01-31T07:36:56.828Z,7.60
2023-01-31T07:37:56.816Z,7.30
2023-01-31T07:38:56.725Z,6.40
2023-01-31T07:39:56.640Z,6.70
2023-01-31T07:40:56.612Z,6.60
2023-01-31T07:41:56.570Z,6.80
2023-01-31T07:42:56.481Z,7.90
2023-01-31T07:43:56.429Z,7.80
2023-01-31T07:44:56.336Z,6.80
2023-01-31T07:45:56.347Z,6.80
2023-01-31T07:46:56.238Z,8.90
2023-01-31T07:47:56.124Z,7.90
2023-01-31T07:48:56.359Z,7.60
2023-01-31T07:49:56.021Z,8.00
2023-01-31T07:50:55.978Z,7.20
2023-01-31T07:51:55.891Z,8.40
2023-01-31T07:52:55.829Z,8.30
2023-01-31T07:53:55.766Z,7.10
2023-01-31T07:56:34.616Z,8.00
2023-01-31T07:57:35.590Z,8.50
2023-01-31T07:58:35.509Z,8.10
2023-01-31T07:59:35.468Z,8.20
2023-01-31T08:00:35.414Z,8.40
2023-01-31T08:01:35.332Z,8.20
2023-01-31T08:02:35.271Z,9.20
2023-01-31T08:03:35.196Z,8.40
2023-01-31T08:04:35.175Z,10.10
2023-01-31T08:05:35.059Z,8.90
2023-01-31T08:06:34.963Z,9.00
2023-01-31T08:07:34.960Z,8.40
2023-01-31T08:08:34.891Z,9.90
2023-01-31T08:09:34.798Z,9.40
2023-01-31T08:10:34.793Z,8.80
2023-01-31T08:11:34.654Z,8.40
2023-01-31T08:12:34.666Z,7.50
2023-01-31T08:13:34.557Z,8.30
2023-01-31T08:14:34.527Z,8.20
2023-01-31T08:15:34.510Z,8.70
2023-01-31T08:16:34.385Z,9.10
2023-01-31T08:17:34.289Z,8.20
2023-01-31T08:18:34.289Z,9.90
2023-01-31T08:19:34.164Z,7.80
2023-01-31T08:20:34.113Z,9.00
2023-01-31T08:21:34.044Z,8.50
2023-01-31T08:22:34.040Z,9.90
2023-01-31T08:23:33.919Z,8.00
2023-01-31T08:24:33.846Z,8.20
2023-01-31T08:25:33.832Z,8.30
2023-01-31T08:26:33.836Z,8.10
2023-01-31T08:27:33.778Z,8.60
2023-01-31T08:28:33.736Z,9.00
2023-01-31T08:29:33.523Z,8.00
2023-01-31T08:30:34.008Z,8.40
2023-01-31T08:31:33.953Z,7.90
2023-01-31T08:32:33.411Z,8.90
2023-01-31T08:33:34.122Z,9.80
2023-01-31T08:34:33.238Z,9.60
2023-01-31T08:35:33.145Z,7.80
2023-01-31T08:36:33.744Z,8.90
2023-01-31T08:37:33.032Z,7.90
2023-01-31T08:38:32.954Z,7.90
2023-01-31T08:39:33.543Z,8.70
2023-01-31T08:40:32.873Z,8.10
2023-01-31T08:41:32.761Z,9.00
2023-01-31T08:42:32.784Z,7.70
2023-01-31T08:43:39.404Z,9.60
2023-01-31T08:44:32.736Z,9.20
2023-01-31T08:45:32.567Z,8.70
2023-01-31T08:46:32.630Z,8.80
2023-01-31T08:47:32.636Z,7.90
2023-01-31T08:48:32.556Z,9.20
2023-01-31T08:49:32.612Z,11.20
2023-01-31T08:50:32.764Z,10.00
2023-01-31T08:51:32.542Z,10.50
2023-01-31T08:52:32.091Z,8.30
2023-01-31T08:53:32.251Z,9.40
2023-01-31T08:54:32.512Z,9.20
2023-01-31T08:55:31.864Z,10.40
2023-01-31T08:56:32.382Z,9.30
2023-01-31T08:57:31.734Z,8.70
2023-01-31T08:58:31.672Z,10.20
2023-01-31T08:59:31.645Z,9.30
2023-01-31T09:00:31.596Z,9.10
2023-01-31T09:01:31.568Z,9.90
2023-01-31T09:02:31.441Z,9.00
2023-01-31T09:03:31.364Z,9.30
2023-01-31T09:04:31.356Z,9.60
2023-01-31T09:05:31.262Z,10.40
2023-01-31T09:06:31.231Z,9.20
2023-01-31T09:07:31.306Z,10.40
2023-01-31T09:08:31.274Z,8.90
2023-01-31T09:09:31.530Z,9.30
2023-01-31T09:10:31.413Z,8.90
2023-01-31T09:11:31.483Z,9.20
2023-01-31T09:12:31.273Z,10.40
2023-01-31T09:13:31.264Z,9.30
2023-01-31T09:14:31.096Z,9.70
2023-01-31T09:15:31.271Z,9.50
2023-01-31T09:16:31.327Z,7.70
2023-01-31T09:17:30.961Z,9.50
2023-01-31T09:18:30.410Z,9.10
2023-01-31T09:19:31.102Z,8.70
2023-01-31T09:20:30.338Z,9.60
2023-01-31T09:21:30.261Z,9.60
2023-01-31T09:22:30.146Z,9.30
2023-01-31T09:23:30.264Z,8.80
2023-01-31T09:24:30.035Z,8.40
2023-01-31T09:25:43.026Z,9.70
2023-01-31T09:26:30.005Z,9.60
2023-01-31T09:27:29.890Z,10.40
2023-01-31T09:28:30.007Z,9.40
2023-01-31T09:29:29.912Z,9.30
2023-01-31T09:30:29.882Z,10.30
2023-01-31T09:31:29.877Z,9.70
2023-01-31T09:32:29.680Z,8.80
2023-01-31T09:33:29.856Z,9.20
2023-01-31T09:34:29.750Z,9.40
2023-01-31T09:35:29.486Z,9.30
2023-01-31T09:36:30.032Z,11.50
2023-01-31T09:37:29.534Z,12.00
2023-01-31T09:38:29.592Z,9.70
2023-01-31T09:39:29.668Z,9.60
2023-01-31T09:40:29.736Z,9.40
2023-01-31T09:41:29.584Z,9.50
2023-01-31T09:42:28.935Z,9.70
2023-01-31T09:43:28.838Z,9.10
2023-01-31T09:44:28.761Z,10.20
2023-01-31T09:45:28.709Z,9.00
2023-01-31T09:46:28.700Z,8.90
2023-01-31T09:47:28.603Z,8.90
2023-01-31T09:48:28.586Z,10.20
2023-01-31T09:49:28.537Z,9.60
2023-01-31T09:50:28.354Z,9.30
2023-01-31T09:51:28.550Z,10.60
2023-01-31T09:52:28.564Z,9.90
2023-01-31T09:53:28.897Z,9.70
2023-01-31T09:54:28.373Z,11.40
2023-01-31T09:55:29.584Z,9.80
2023-01-31T09:56:28.442Z,9.90
2023-01-31T09:57:28.456Z,11.40
2023-01-31T09:58:28.562Z,11.40
2023-01-31T09:59:28.616Z,9.80
2023-01-31T10:00:27.816Z,9.10
2023-01-31T10:01:48.952Z,10.10
2023-01-31T10:02:28.207Z,10.20
2023-01-31T10:03:27.788Z,10.20
2023-01-31T10:04:28.171Z,11.10
2023-01-31T10:05:27.487Z,11.90
2023-01-31T10:06:27.385Z,10.50
2023-01-31T10:07:27.376Z,11.40
2023-01-31T10:08:27.332Z,11.60
2023-01-31T10:09:27.251Z,10.70
2023-01-31T10:10:27.165Z,10.70
2023-01-31T10:11:27.036Z,11.00
2023-01-31T10:12:27.034Z,11.70
2023-01-31T10:13:26.949Z,11.60
2023-01-31T10:14:27.301Z,11.20
2023-01-31T10:15:28.008Z,12.40
2023-01-31T10:16:26.752Z,11.00
2023-01-31T10:17:26.732Z,11.60
2023-01-31T10:18:26.587Z,11.20
2023-01-31T10:19:26.549Z,10.70
2023-01-31T10:20:26.463Z,11.70
2023-01-31T10:21:26.408Z,11.00
2023-01-31T10:22:26.411Z,10.10
2023-01-31T10:23:26.291Z,9.80
2023-01-31T10:24:26.419Z,9.50
2023-01-31T10:25:27.281Z,10.30
2023-01-31T10:26:26.137Z,9.60
2023-01-31T10:27:26.064Z,11.50
2023-01-31T10:28:26.037Z,11.20
2023-01-31T10:29:25.950Z,9.80
2023-01-31T10:30:26.108Z,12.30
2023-01-31T10:31:28.252Z,11.90
2023-01-31T10:32:26.744Z,10.10
2023-01-31T10:33:26.692Z,10.50
2023-01-31T10:34:26.864Z,11.20
2023-01-31T10:35:39.093Z,10.30
2023-01-31T10:36:26.620Z,10.40
2023-01-31T10:37:25.449Z,10.70
2023-01-31T10:38:25.406Z,10.20
2023-01-31T10:39:25.320Z,10.40
2023-01-31T10:40:25.333Z,10.30
2023-01-31T10:41:25.167Z,11.10
2023-01-31T10:42:25.132Z,11.00
2023-01-31T10:43:25.072Z,10.70
2023-01-31T10:44:25.010Z,10.00
2023-01-31T10:45:24.912Z,11.30
2023-01-31T10:46:24.859Z,11.50
2023-01-31T10:47:24.804Z,11.10
2023-01-31T10:48:24.688Z,11.20
2023-01-31T10:49:24.765Z,10.80
2023-01-31T10:50:24.564Z,10.60
2023-01-31T10:51:24.533Z,11.10
2023-01-31T10:52:24.462Z,11.10
2023-01-31T10:53:24.410Z,11.80
2023-01-31T10:54:24.365Z,10.30
2023-01-31T10:55:45.235Z,9.90
2023-01-31T10:56:24.209Z,11.30
2023-01-31T10:57:24.172Z,10.80
2023-01-31T10:58:24.089Z,10.70
2023-01-31T10:59:24.031Z,10.60
2023-01-31T11:00:24.207Z,11.10
2023-01-31T11:01:23.924Z,10.10
2023-01-31T11:02:23.914Z,9.40
2023-01-31T11:03:23.742Z,10.00
2023-01-31T11:04:23.752Z,11.20
2023-01-31T11:05:23.638Z,10.10
2023-01-31T11:06:23.665Z,11.60
2023-01-31T11:07:23.513Z,10.20
2023-01-31T11:08:23.548Z,11.40
2023-01-31T11:09:23.416Z,10.60
2023-01-31T11:10:23.797Z,10.70
2023-01-31T11:11:23.264Z,11.30
2023-01-31T11:12:23.231Z,10.50
2023-01-31T11:13:23.140Z,11.30
2023-01-31T11:14:23.163Z,11.20
2023-01-31T11:15:23.007Z,11.20
2023-01-31T11:16:22.987Z,11.60
2023-01-31T11:17:22.878Z,11.10
2023-01-31T11:18:22.831Z,11.60
2023-01-31T11:19:22.942Z,11.60
2023-01-31T11:20:23.128Z,11.50
2023-01-31T11:21:22.637Z,12.20
2023-01-31T11:22:22.570Z,12.60
2023-01-31T11:23:22.507Z,13.20
2023-01-31T11:24:22.432Z,12.70
2023-01-31T11:25:22.425Z,13.20
2023-01-31T11:26:22.393Z,14.60
2023-01-31T11:27:22.269Z,14.40
2023-01-31T11:28:22.255Z,14.10
2023-01-31T11:29:22.127Z,13.60
2023-01-31T11:30:22.647Z,14.10
2023-01-31T11:31:22.062Z,13.70
2023-01-31T11:32:21.935Z,15.30
2023-01-31T11:33:21.868Z,15.10
2023-01-31T11:34:21.883Z,15.00
2023-01-31T11:35:21.748Z,15.30
2023-01-31T11:36:21.696Z,15.50
2023-01-31T11:37:21.645Z,15.60
2023-01-31T11:38:21.590Z,15.90
2023-01-31T11:39:21.532Z,15.10
2023-01-31T11:40:21.908Z,16.40
2023-01-31T11:41:21.365Z,15.80
2023-01-31T11:42:21.269Z,16.00
2023-01-31T11:43:21.227Z,18.10
2023-01-31T11:44:21.216Z,18.30
2023-01-31T11:45:21.106Z,17.00
2023-01-31T11:46:21.109Z,17.70
2023-01-31T11:47:20.979Z,17.40
2023-01-31T11:48:20.932Z,18.10
2023-01-31T11:49:21.588Z,16.90
2023-01-31T11:50:21.186Z,17.60
2023-01-31T11:51:20.768Z,17.10
2023-01-31T11:52:20.676Z,16.60
2023-01-31T11:53:20.576Z,19.10
2023-01-31T11:54:20.645Z,18.30
2023-01-31T11:55:20.461Z,16.70
2023-01-31T11:56:20.421Z,16.40
2023-01-31T11:57:20.330Z,16.60
2023-01-31T11:58:20.272Z,16.60
2023-01-31T11:59:20.256Z,16.60
2023-01-31T12:00:20.514Z,18.80
2023-01-31T12:01:20.114Z,16.10
2023-01-31T12:02:21.117Z,16.30
2023-01-31T12:03:20.002Z,16.30
2023-01-31T12:04:21.191Z,16.90
2023-01-31T12:05:20.105Z,16.10
2023-01-31T12:06:20.476Z,16.20
2023-01-31T12:07:21.373Z,15.60
2023-01-31T12:08:19.664Z,14.10
2023-01-31T12:09:20.637Z,16.60
2023-01-31T12:10:19.941Z,23.00
2023-01-31T12:11:19.460Z,14.60
2023-01-31T12:12:19.403Z,14.90
2023-01-31T12:13:19.720Z,15.60
2023-01-31T12:14:19.285Z,14.70
2023-01-31T12:15:19.503Z,13.80
2023-01-31T12:16:19.199Z,15.70
2023-01-31T12:17:19.109Z,16.10
2023-01-31T12:18:19.022Z,16.00
2023-01-31T12:19:18.948Z,14.30
2023-01-31T12:20:28.152Z,17.40
2023-01-31T12:21:18.879Z,15.30
2023-01-31T12:22:18.801Z,27.60
2023-01-31T12:23:18.716Z,13.10
2023-01-31T12:24:18.657Z,12.50
2023-01-31T12:25:39.573Z,14.00
2023-01-31T12:26:19.811Z,16.60
2023-01-31T12:27:18.965Z,12.90
2023-01-31T12:28:18.385Z,12.90
2023-01-31T12:29:18.364Z,11.60
2023-01-31T12:30:18.299Z,11.60
2023-01-31T12:31:18.376Z,13.40
2023-01-31T12:32:18.139Z,12.70
2023-01-31T12:33:18.127Z,13.60
2023-01-31T12:34:18.080Z,12.60
2023-01-31T12:35:17.959Z,12.50
2023-01-31T12:36:17.852Z,10.70
2023-01-31T12:37:17.868Z,10.70
2023-01-31T12:38:17.791Z,11.30
2023-01-31T12:39:17.704Z,10.80
2023-01-31T12:40:24.992Z,11.30
2023-01-31T12:41:17.567Z,11.70
2023-01-31T12:42:17.526Z,11.80
2023-01-31T12:43:17.452Z,13.10
2023-01-31T12:44:17.407Z,11.40
2023-01-31T12:45:17.308Z,11.20
2023-01-31T12:46:17.354Z,12.70
2023-01-31T12:47:18.907Z,11.20
2023-01-31T12:48:17.152Z,10.90
2023-01-31T12:49:23.569Z,11.70
2023-01-31T12:50:19.757Z,13.60
2023-01-31T12:51:17.417Z,11.30
2023-01-31T12:52:16.868Z,11.70
2023-01-31T12:53:17.584Z,10.30
2023-01-31T12:54:16.763Z,10.30
2023-01-31T12:55:16.714Z,10.30
2023-01-31T12:56:16.660Z,10.00
2023-01-31T12:57:16.547Z,9.50
2023-01-31T12:58:16.580Z,10.30
2023-01-31T12:59:17.048Z,9.40
2023-01-31T13:00:16.349Z,11.20
2023-01-31T13:01:37.310Z,9.40
2023-01-31T13:02:16.235Z,10.10
2023-01-31T13:03:16.150Z,9.80
2023-01-31T13:04:16.190Z,10.30
2023-01-31T13:05:16.073Z,11.30
2023-01-31T13:06:15.983Z,11.00
2023-01-31T13:07:15.959Z,10.70
2023-01-31T13:08:16.325Z,10.40
2023-01-31T13:09:15.819Z,9.50
2023-01-31T13:10:15.759Z,9.50
2023-01-31T13:11:15.696Z,9.60
2023-01-31T13:12:15.644Z,9.70
2023-01-31T13:13:15.562Z,8.60
2023-01-31T13:14:15.549Z,9.80
2023-01-31T13:15:15.577Z,9.50
2023-01-31T13:16:15.379Z,8.70
2023-01-31T13:17:15.284Z,9.00
2023-01-31T13:18:15.213Z,8.20